Decoded Metar for LFQB (TROYES in FRANCE) (IATA:QYR) | Meteo·Mobile Aviation Weather
aviador You're here:

LFQB Decoded Metar

TROYES in FRANCE
Report Time2018-08-22 06:30:00
UTC Time2018-08-22 07:00:08
Flight Rules vfr VFR
Wind330° at 02 kt
W.Decomp.*RWY 35: 1.9 kt HW 0.7 kt LCW
RWY 05: 0.3 kt HW 2 kt LCW
W.Rank330° ranks 20
Current wind is below 330° avg. (5.5)
Visibility9999 m
Phenomena:N/A
Clouds:N/A
Expected CloudBase > 1,200 ft AGL from Temp-Dew spread
CeilingNone
Temp18°C (ISA +4)
Dew Point15°C (83% RH)
QNH1018 hPa
Density Alt889 ft
Elevation387 ft
Report Wrong Elevation
Raw Report
LFQB 220630Z AUTO 33002KT CAVOK 18/15 Q1018=

Extra information for LFQB:More info

Metar Taf Metar & Taf Last 4 Metars F.Rules Stats Wind Profile Meteogram Temp Stats Airport Information Weather charts Add Link Nearby VenuesMetar ALERT Operation Metar Decoded Social comments